Time;durP1;ratioP1;P1;durP2;ratioP2;P2;SDS_P1;SDS_P2;PMS_P1;PMS_P2;Temp;Humidity;BMP_temperature;BMP_pressure;BME280_temperature;BME280_humidity;BME280_pressure;Samples;Min_cycle;Max_cycle;Signal;HPM_P1;HPM_P2
2021/12/03 00:02:46;;;;;;;7.07;3.08;;;;;;;2.76;88.17;100985.56;4954519;28;20044;-49
2021/12/03 00:05:34;;;;;;;6.55;3.03;;;;;;;2.79;88.42;100987.84;4952306;29;20134;-50
2021/12/03 00:08:23;;;;;;;7.53;3.42;;;;;;;2.81;88.72;101001.91;4953169;28;20062;-50
2021/12/03 00:11:14;;;;;;;7.22;3.25;;;;;;;2.81;88.69;100993.81;4953089;28;20047;-50
2021/12/03 00:14:01;;;;;;;7.47;3.35;;;;;;;2.81;88.26;100991.13;4953449;28;20055;-50
2021/12/03 00:16:49;;;;;;;9.88;3.75;;;;;;;2.81;88.40;100995.69;4953036;28;20405;-49
2021/12/03 00:19:36;;;;;;;9.88;3.78;;;;;;;2.81;89.05;100985.75;4952852;28;20106;-49
2021/12/03 00:22:24;;;;;;;9.98;4.28;;;;;;;2.81;88.76;101001.91;4950893;28;20055;-48
2021/12/03 00:25:13;;;;;;;7.55;3.75;;;;;;;2.81;88.89;101001.91;4953229;28;20506;-48
2021/12/03 00:28:01;;;;;;;7.60;3.80;;;;;;;2.81;89.58;101001.91;4952118;28;20050;-54
2021/12/03 00:30:52;;;;;;;9.63;3.90;;;;;;;2.83;89.25;100997.13;4956888;28;20053;-53
2021/12/03 00:33:40;;;;;;;8.20;3.92;;;;;;;2.83;88.95;101002.53;4955968;28;20058;-50
2021/12/03 00:36:28;;;;;;;10.68;4.20;;;;;;;2.81;89.17;101001.91;4952460;29;20044;-53
2021/12/03 00:39:16;;;;;;;8.68;4.07;;;;;;;2.79;89.25;100995.94;4952625;29;20443;-53
2021/12/03 00:42:04;;;;;;;10.25;4.30;;;;;;;2.77;88.86;100998.81;4943348;28;20416;-49
2021/12/03 00:44:55;;;;;;;7.82;3.80;;;;;;;2.77;89.06;101001.50;4952361;28;20562;-49
2021/12/03 00:47:43;;;;;;;9.88;4.22;;;;;;;2.79;89.20;101004.00;4952983;28;20059;-48
2021/12/03 00:50:32;;;;;;;8.50;4.13;;;;;;;2.78;89.27;101002.34;4941400;29;20058;-50
2021/12/03 00:53:19;;;;;;;7.75;4.25;;;;;;;2.76;89.19;101005.22;4953507;28;20518;-51
2021/12/03 00:56:09;;;;;;;8.32;4.35;;;;;;;2.77;89.30;101000.69;4956535;28;20063;-51
2021/12/03 00:58:56;;;;;;;9.35;4.00;;;;;;;2.77;89.22;101000.69;4952648;29;20047;-53
2021/12/03 01:01:44;;;;;;;9.27;4.32;;;;;;;2.77;89.54;100992.63;4952489;28;20043;-50
2021/12/03 01:04:32;;;;;;;9.60;4.22;;;;;;;2.76;89.26;100990.94;4952788;28;20058;-49
2021/12/03 01:07:20;;;;;;;10.80;4.30;;;;;;;2.74;89.50;100991.19;4955263;28;20114;-50
2021/12/03 01:10:08;;;;;;;9.05;4.70;;;;;;;2.74;89.81;101003.78;4956002;28;20047;-49
2021/12/03 01:12:56;;;;;;;9.02;4.60;;;;;;;2.73;89.68;101004.84;4956821;28;20043;-49
2021/12/03 01:15:44;;;;;;;10.35;5.07;;;;;;;2.73;89.67;101002.97;4955301;28;20051;-52
2021/12/03 01:18:32;;;;;;;9.85;5.05;;;;;;;2.74;90.12;101001.09;4955877;28;20102;-49
2021/12/03 01:21:20;;;;;;;10.70;5.13;;;;;;;2.74;90.45;101001.94;4955768;28;20078;-48
2021/12/03 01:24:07;;;;;;;12.07;5.40;;;;;;;2.72;90.26;101006.72;4968029;28;20058;-48
2021/12/03 01:26:55;;;;;;;13.35;5.22;;;;;;;2.74;90.64;101012.72;4954596;29;20130;-51
2021/12/03 01:29:43;;;;;;;10.27;4.85;;;;;;;2.74;90.40;101006.47;4959741;28;20047;-52
2021/12/03 01:32:30;;;;;;;9.40;4.50;;;;;;;2.73;90.27;101010.22;4955965;29;20569;-50
2021/12/03 01:35:19;;;;;;;9.38;4.90;;;;;;;2.71;90.66;101006.91;4955629;28;20391;-48
2021/12/03 01:38:07;;;;;;;12.88;5.25;;;;;;;2.71;90.57;101009.59;4955389;28;20056;-47
2021/12/03 01:40:41;;;;;;;10.80;5.38;;;;;;;2.70;90.61;101010.66;4954125;28;20109;-46
2021/12/03 01:43:29;;;;;;;10.80;4.30;;;;;;;2.72;90.79;101011.25;4981913;28;20043;-46
2021/12/03 01:46:19;;;;;;;11.07;4.90;;;;;;;2.72;90.97;101009.41;4954347;28;20051;-47
2021/12/03 01:49:09;;;;;;;12.32;5.13;;;;;;;2.71;91.11;101006.91;4955564;28;20055;-47
2021/12/03 01:51:57;;;;;;;10.18;5.10;;;;;;;2.73;91.01;101007.53;4955497;29;20059;-47
2021/12/03 01:54:44;;;;;;;11.23;5.57;;;;;;;2.73;91.28;100999.44;4955261;29;20055;-46
2021/12/03 01:57:32;;;;;;;9.85;5.13;;;;;;;2.76;91.28;100999.03;4952765;28;20043;-47
2021/12/03 02:00:29;;;;;;;9.80;5.38;;;;;;;2.79;91.28;101004.00;4954697;28;20070;-49
2021/12/03 02:03:17;;;;;;;10.27;5.60;;;;;;;2.80;91.17;100999.44;4954972;28;20043;-46
2021/12/03 02:06:06;;;;;;;10.88;5.70;;;;;;;2.80;90.82;100996.75;4955831;28;20070;-49
2021/12/03 02:08:54;;;;;;;10.40;5.80;;;;;;;2.78;90.75;101002.34;4943184;29;20494;-49
2021/12/03 02:11:42;;;;;;;14.73;6.03;;;;;;;2.76;90.80;101004.41;4954694;29;20062;-47
2021/12/03 02:14:30;;;;;;;11.25;6.10;;;;;;;2.77;91.04;100984.56;4955304;29;20043;-46
2021/12/03 02:17:17;;;;;;;10.68;6.07;;;;;;;2.74;91.05;100993.03;4949044;28;20097;-44
2021/12/03 02:20:10;;;;;;;13.57;6.90;;;;;;;2.72;91.57;100998.63;4959343;28;20063;-47
2021/12/03 02:22:58;;;;;;;12.55;6.32;;;;;;;2.69;91.16;100995.53;4955265;28;20387;-51
2021/12/03 02:25:46;;;;;;;11.00;5.45;;;;;;;2.69;91.66;101000.91;4954200;29;20051;-44
2021/12/03 02:28:40;;;;;;;11.65;6.68;;;;;;;2.70;91.79;100998.00;4955651;28;20113;-46
2021/12/03 02:31:27;;;;;;;14.02;6.95;;;;;;;2.71;91.87;100993.44;4954723;29;20127;-46
2021/12/03 02:34:15;;;;;;;11.45;6.70;;;;;;;2.70;92.21;100999.88;4954843;29;20055;-47
2021/12/03 02:37:04;;;;;;;11.77;6.07;;;;;;;2.70;92.64;100997.19;4954744;28;20073;-44
2021/12/03 02:39:51;;;;;;;11.90;6.97;;;;;;;2.70;92.14;101002.56;4954722;28;20063;-51
2021/12/03 02:42:39;;;;;;;13.60;7.38;;;;;;;2.71;92.61;100996.16;4954260;29;20059;-49
2021/12/03 02:45:27;;;;;;;14.02;7.82;;;;;;;2.73;92.68;100988.69;4954632;29;20121;-52
2021/12/03 02:48:14;;;;;;;12.25;6.40;;;;;;;2.77;92.79;100992.63;4947177;28;20060;-51
2021/12/03 02:51:02;;;;;;;11.68;6.68;;;;;;;2.79;92.96;100977.09;4953957;29;20046;-50
2021/12/03 02:53:50;;;;;;;11.20;6.85;;;;;;;2.82;92.91;100986.59;4953960;29;20069;-50
2021/12/03 02:56:37;;;;;;;20.88;11.68;;;;;;;2.78;92.74;100984.31;4955056;28;20047;-51
2021/12/03 02:59:25;;;;;;;18.38;11.85;;;;;;;2.74;93.38;100991.19;4954039;29;20059;-49
2021/12/03 03:02:04;;;;;;;18.50;10.90;;;;;;;2.76;93.13;100996.34;4953217;28;20098;-46
2021/12/03 03:05:11;;;;;;;20.27;12.13;;;;;;;2.74;93.22;100993.03;4953921;29;20443;-47
2021/12/03 03:07:59;;;;;;;25.95;16.40;;;;;;;2.74;93.48;100990.34;4954672;28;20043;-48
2021/12/03 03:10:41;;;;;;;;;;;;;;;2.77;93.46;100993.44;4954735;28;20043;-48
2021/12/03 03:13:28;;;;;;;23.60;14.63;;;;;;;2.76;93.36;100991.78;4954060;28;19930;-46
2021/12/03 03:16:17;;;;;;;27.30;16.58;;;;;;;2.78;94.01;100992.38;4953786;29;20110;-47
2021/12/03 03:19:13;;;;;;;27.75;17.13;;;;;;;2.76;93.48;100982.88;4954997;28;20055;-49
2021/12/03 03:22:01;;;;;;;;;;;;;;;2.74;93.70;100982.25;4954024;28;20498;-46
2021/12/03 03:24:49;;;;;;;29.83;16.95;;;;;;;2.74;94.33;100990.34;4953462;28;19922;-50
2021/12/03 03:27:37;;;;;;;27.15;15.88;;;;;;;2.73;94.55;100983.31;4954353;28;20560;-54
2021/12/03 03:30:25;;;;;;;32.22;18.60;;;;;;;2.74;94.71;100982.25;4953437;28;20043;-51
2021/12/03 03:33:13;;;;;;;33.22;18.67;;;;;;;2.76;94.77;100983.69;4954011;29;20051;-47
2021/12/03 03:36:00;;;;;;;35.00;20.85;;;;;;;2.77;95.00;100992.63;4942999;28;20525;-49
2021/12/03 03:38:48;;;;;;;27.08;15.38;;;;;;;2.77;94.62;100987.25;4953450;28;20073;-49
2021/12/03 03:41:36;;;;;;;37.50;21.60;;;;;;;2.78;94.79;100988.88;4953409;28;20055;-49
2021/12/03 03:44:24;;;;;;;35.03;19.30;;;;;;;2.78;94.85;100984.31;4953769;29;20047;-47
2021/12/03 03:47:12;;;;;;;34.47;19.70;;;;;;;2.76;95.25;100991.78;4954663;28;20051;-45
2021/12/03 03:50:00;;;;;;;34.45;20.88;;;;;;;2.78;95.03;100988.88;4953743;29;20050;-48
2021/12/03 03:52:49;;;;;;;29.25;17.77;;;;;;;2.79;95.17;100982.47;4952812;29;20047;-46
2021/12/03 03:55:37;;;;;;;32.67;20.17;;;;;;;2.82;95.17;100982.03;4952206;28;20490;-48
2021/12/03 03:58:24;;;;;;;26.42;16.35;;;;;;;2.84;95.28;100981.81;4964018;28;20516;-50
2021/12/03 04:01:13;;;;;;;27.35;17.80;;;;;;;2.82;95.57;100967.78;4940842;29;20122;-49
2021/12/03 04:04:01;;;;;;;20.17;12.50;;;;;;;2.87;95.67;100965.25;4953126;28;20067;-45
2021/12/03 04:06:50;;;;;;;23.38;13.85;;;;;;;2.89;96.27;100961.31;4954150;28;20048;-46
2021/12/03 04:09:37;;;;;;;28.08;15.68;;;;;;;2.85;95.43;100965.47;4959873;28;20065;-45
2021/12/03 04:12:25;;;;;;;28.25;17.83;;;;;;;2.86;95.88;100961.75;4953116;29;20126;-46
2021/12/03 04:15:13;;;;;;;29.45;18.17;;;;;;;2.88;95.92;100964.22;4953942;28;20051;-49
2021/12/03 04:18:01;;;;;;;22.65;12.75;;;;;;;2.96;97.75;100945.97;4953287;28;20050;-45
2021/12/03 04:20:49;;;;;;;30.48;18.70;;;;;;;2.89;95.79;100963.19;4952861;28;20051;-44
2021/12/03 04:23:36;;;;;;;28.02;18.02;;;;;;;2.85;96.43;100964.66;4952951;29;20071;-44
2021/12/03 04:26:24;;;;;;;27.52;16.90;;;;;;;2.83;96.17;100969.41;4950880;28;20122;-44
2021/12/03 04:29:11;;;;;;;30.48;16.77;;;;;;;2.89;97.34;100961.31;4953494;29;20118;-45
2021/12/03 04:31:59;;;;;;;25.55;15.57;;;;;;;2.91;97.31;100964.63;4952896;29;20054;-44
2021/12/03 04:34:47;;;;;;;29.30;17.83;;;;;;;2.93;96.64;100962.50;4953858;28;20058;-45
2021/12/03 04:37:34;;;;;;;28.95;16.63;;;;;;;2.90;96.21;100965.66;4941259;29;20545;-46
2021/12/03 04:40:23;;;;;;;30.88;18.95;;;;;;;2.87;96.09;100959.88;4952687;28;20537;-49
2021/12/03 04:43:12;;;;;;;29.00;17.77;;;;;;;2.86;96.46;100953.69;4956628;29;20193;-47
2021/12/03 04:45:59;;;;;;;35.78;20.58;;;;;;;2.88;96.03;100962.34;4957857;28;20055;-47
2021/12/03 04:48:46;;;;;;;35.78;21.75;;;;;;;2.88;95.93;100959.66;4955742;29;20051;-44
2021/12/03 04:51:33;;;;;;;26.40;16.73;;;;;;;2.85;95.75;100960.09;4956051;29;20569;-46
2021/12/03 04:54:21;;;;;;;27.90;18.17;;;;;;;2.85;96.24;100962.78;4957432;28;20055;-45
2021/12/03 04:57:09;;;;;;;36.15;21.60;;;;;;;2.85;96.28;100960.09;4951829;28;20162;-45
2021/12/03 04:59:57;;;;;;;36.75;20.95;;;;;;;2.87;95.92;100952.63;4956291;29;20043;-49
2021/12/03 05:02:46;;;;;;;30.45;18.80;;;;;;;2.90;96.23;100948.69;4956149;29;20050;-50
2021/12/03 05:05:34;;;;;;;29.88;18.38;;;;;;;2.91;96.41;100943.09;4956841;28;20055;-49
2021/12/03 05:08:23;;;;;;;33.70;21.00;;;;;;;2.91;95.93;100928.78;4956058;29;20059;-47
2021/12/03 05:11:12;;;;;;;31.27;18.17;;;;;;;2.91;96.11;100947.63;4956088;29;20568;-53
2021/12/03 05:14:00;;;;;;;26.40;15.85;;;;;;;2.98;97.20;100927.75;4956084;28;20047;-52
2021/12/03 05:16:48;;;;;;;27.10;15.93;;;;;;;2.94;97.01;100921.13;4954690;28;20047;-47
2021/12/03 05:19:36;;;;;;;29.70;17.15;;;;;;;2.98;97.00;100925.03;4955693;29;20054;-50
2021/12/03 05:22:27;;;;;;;31.95;18.00;;;;;;;2.96;96.51;100921.75;4956209;29;20063;-51
2021/12/03 05:25:14;;;;;;;25.42;14.63;;;;;;;2.96;96.50;100929.81;4959429;28;20042;-49
2021/12/03 05:28:03;;;;;;;24.88;16.73;;;;;;;2.97;96.54;100925.25;4961511;28;20375;-50
2021/12/03 05:30:51;;;;;;;25.60;15.48;;;;;;;2.95;96.92;100928.16;4955767;28;20047;-48
2021/12/03 05:33:38;;;;;;;26.27;15.73;;;;;;;2.95;97.03;100938.91;4955165;29;20513;-50
2021/12/03 05:36:26;;;;;;;26.92;15.50;;;;;;;2.94;96.80;100928.38;4956935;28;20114;-47
2021/12/03 05:39:15;;;;;;;20.20;13.00;;;;;;;2.95;96.83;100930.03;4943094;29;20135;-50
2021/12/03 05:42:04;;;;;;;19.88;11.90;;;;;;;2.95;97.01;100935.41;4951987;29;20074;-47
2021/12/03 05:44:53;;;;;;;27.30;14.50;;;;;;;2.94;97.05;100942.66;4957004;28;20043;-53
2021/12/03 05:47:38;;;;;;;24.30;11.90;;;;;;;2.96;97.44;100929.81;4941136;29;20074;-48
2021/12/03 05:50:26;;;;;;;19.17;11.63;;;;;;;2.99;97.52;100934.75;4955492;28;20059;-47
2021/12/03 05:53:14;;;;;;;21.08;10.63;;;;;;;3.03;97.23;100931.63;4955349;28;20051;-53
2021/12/03 05:56:02;;;;;;;20.48;11.70;;;;;;;2.99;96.64;100934.75;4955917;28;20059;-51
2021/12/03 05:58:50;;;;;;;18.02;10.85;;;;;;;2.99;97.30;100940.13;4953731;29;20059;-49
2021/12/03 06:01:38;;;;;;;22.30;11.05;;;;;;;2.98;97.13;100934.97;4955258;29;20110;-48
2021/12/03 06:04:27;;;;;;;21.65;11.23;;;;;;;2.96;96.87;100940.59;4955771;28;20039;-49
2021/12/03 06:07:15;;;;;;;20.63;10.90;;;;;;;2.99;97.69;100924.00;4965064;28;20051;-49
2021/12/03 06:10:03;;;;;;;18.38;9.07;;;;;;;3.01;97.37;100925.63;4954968;29;20048;-51
2021/12/03 06:12:51;;;;;;;15.30;7.78;;;;;;;3.04;97.07;100941.38;4955021;29;20457;-48
2021/12/03 06:15:39;;;;;;;17.80;8.57;;;;;;;3.02;97.01;100941.56;4955449;28;20391;-48
2021/12/03 06:18:26;;;;;;;14.75;6.70;;;;;;;3.08;97.87;100931.81;4954536;29;20470;-50
2021/12/03 06:21:17;;;;;;;16.77;7.40;;;;;;;3.06;97.22;100928.53;4955373;28;20047;-48
2021/12/03 06:24:04;;;;;;;16.90;7.70;;;;;;;3.03;96.73;100926.25;4955725;28;20074;-49
2021/12/03 06:26:52;;;;;;;16.00;6.28;;;;;;;3.06;98.40;100921.28;4955740;28;20526;-48
2021/12/03 06:29:40;;;;;;;14.23;6.20;;;;;;;3.04;97.27;100923.34;4954820;29;20114;-48
2021/12/03 06:32:27;;;;;;;12.82;6.40;;;;;;;2.99;96.80;100929.38;4954197;28;20051;-49
2021/12/03 06:35:16;;;;;;;18.35;7.00;;;;;;;2.98;96.79;100922.34;4954620;29;20051;-48
2021/12/03 06:38:03;;;;;;;17.80;7.03;;;;;;;2.96;96.60;100924.44;4955152;28;21021;-48
2021/12/03 06:40:52;;;;;;;16.80;6.80;;;;;;;2.94;96.02;100921.13;4954440;29;20059;-48
2021/12/03 06:43:40;;;;;;;14.02;5.75;;;;;;;2.94;95.97;100915.75;4954349;28;20151;-49
2021/12/03 06:46:30;;;;;;;15.35;6.13;;;;;;;2.94;95.80;100915.75;4953683;29;20059;-48
2021/12/03 06:49:17;;;;;;;14.20;5.32;;;;;;;2.96;96.42;100910.97;4966846;28;20069;-51
2021/12/03 06:52:08;;;;;;;16.08;5.80;;;;;;;2.99;96.15;100910.53;4954073;28;20466;-49
2021/12/03 06:54:59;;;;;;;15.80;5.95;;;;;;;3.01;95.58;100913.03;4954639;29;20055;-49
2021/12/03 06:57:46;;;;;;;12.23;5.35;;;;;;;3.08;96.54;100921.03;4955050;28;20066;-51
2021/12/03 07:00:34;;;;;;;13.60;5.22;;;;;;;3.09;96.60;100906.56;4949109;29;20055;-51
2021/12/03 07:03:22;;;;;;;12.32;5.47;;;;;;;3.11;95.84;100904.47;4953706;28;20477;-50
2021/12/03 07:06:10;;;;;;;14.85;6.18;;;;;;;3.14;96.35;100914.81;4953333;29;20054;-51
2021/12/03 07:08:58;;;;;;;14.32;4.93;;;;;;;3.12;97.31;100911.50;4960282;28;20145;-50
2021/12/03 07:11:46;;;;;;;13.27;4.90;;;;;;;3.13;97.41;100910.47;4954242;28;20051;-49
2021/12/03 07:14:33;;;;;;;12.52;5.38;;;;;;;3.36;100.00;100896.44;4953082;28;20596;-48
2021/12/03 07:17:21;;;;;;;12.65;5.18;;;;;;;3.36;99.58;100896.44;4953736;28;20560;-49
2021/12/03 07:20:16;;;;;;;14.42;5.45;;;;;;;3.30;97.21;100900.00;4848362;28;10000891;-51
2021/12/03 07:23:03;;;;;;;15.30;5.00;;;;;;;3.30;97.38;100900.81;4955725;28;20264;-50
2021/12/03 07:25:51;;;;;;;12.50;5.15;;;;;;;3.70;100.00;100887.03;4951698;28;20043;-50
2021/12/03 07:28:38;;;;;;;15.30;5.97;;;;;;;3.70;100.00;100887.03;4955910;28;20047;-50
2021/12/03 07:31:26;;;;;;;13.48;5.63;;;;;;;3.53;100.00;100885.94;4951197;29;20552;-46
2021/12/03 07:34:18;;;;;;;16.88;5.88;;;;;;;3.56;100.00;100889.03;4950596;28;20059;-51
2021/12/03 07:37:05;;;;;;;15.75;5.30;;;;;;;3.66;100.00;100893.09;4951167;29;20043;-49
2021/12/03 07:39:53;;;;;;;13.75;5.28;;;;;;;3.39;98.84;100896.81;4951836;28;20062;-49
2021/12/03 07:42:41;;;;;;;11.95;4.80;;;;;;;3.31;98.50;100899.78;4950407;29;20070;-49
2021/12/03 07:45:29;;;;;;;18.98;7.00;;;;;;;3.25;95.92;100900.66;4951324;28;20047;-48
2021/12/03 07:48:17;;;;;;;14.40;5.72;;;;;;;3.34;100.00;100895.81;4951606;29;20051;-47
2021/12/03 07:51:05;;;;;;;17.75;6.80;;;;;;;3.57;100.00;100900.63;4950153;28;20062;-49
2021/12/03 07:53:52;;;;;;;15.93;6.28;;;;;;;3.45;98.78;100910.47;4955697;28;20438;-48
2021/12/03 07:56:33;;;;;;;17.75;6.00;;;;;;;3.62;100.00;100901.59;4950488;29;20522;-51
2021/12/03 07:59:20;;;;;;;14.52;6.70;;;;;;;3.44;97.97;100895.31;4950452;29;20043;-48
2021/12/03 08:02:08;;;;;;;14.10;5.22;;;;;;;3.40;97.55;100885.00;4952428;28;20074;-49
2021/12/03 08:04:56;;;;;;;17.63;6.45;;;;;;;3.30;95.19;100889.22;4950865;28;20134;-49
2021/12/03 08:07:46;;;;;;;13.45;5.78;;;;;;;3.37;99.03;100877.38;4950865;29;20062;-49
2021/12/03 08:10:35;;;;;;;15.20;6.13;;;;;;;3.51;100.00;100879.94;4951656;28;20576;-50
2021/12/03 08:13:22;;;;;;;11.10;4.95;;;;;;;3.75;100.00;100875.59;4949818;28;20039;-49
2021/12/03 08:16:10;;;;;;;11.93;5.20;;;;;;;3.71;100.00;100888.69;4952805;28;20051;-50
2021/12/03 08:18:57;;;;;;;8.63;3.60;;;;;;;3.92;100.00;100889.31;4955098;29;20101;-50
2021/12/03 08:21:45;;;;;;;16.83;6.10;;;;;;;4.15;100.00;100883.28;4955226;28;20047;-47
2021/12/03 08:24:33;;;;;;;16.55;5.63;;;;;;;3.93;100.00;100886.41;4954877;29;20518;-49
2021/12/03 08:27:20;;;;;;;16.50;5.55;;;;;;;3.79;100.00;100883.00;4954559;28;20051;-49
2021/12/03 08:30:11;;;;;;;12.65;5.60;;;;;;;3.53;100.00;100885.94;4954845;29;20059;-51
2021/12/03 08:32:59;;;;;;;16.52;4.65;;;;;;;3.50;100.00;100876.44;4955511;28;20085;-45
2021/12/03 08:35:47;;;;;;;17.20;7.00;;;;;;;3.62;100.00;100881.94;4951586;28;20051;-48
2021/12/03 08:38:35;;;;;;;23.83;6.68;;;;;;;3.53;100.00;100880.53;4954002;28;20051;-48
2021/12/03 08:41:22;;;;;;;22.00;7.63;;;;;;;3.81;100.00;100878.22;4954230;28;20499;-49
2021/12/03 08:44:10;;;;;;;22.70;6.50;;;;;;;3.54;97.36;100871.44;4952727;28;20054;-49
2021/12/03 08:47:01;;;;;;;16.05;5.75;;;;;;;3.28;95.22;100873.28;4956258;28;20817;-47
2021/12/03 08:49:54;;;;;;;16.55;6.07;;;;;;;3.16;93.48;100870.47;4956208;29;20055;-50
2021/12/03 08:55:52;;;;;;;23.98;7.47;;;;;;;3.58;100.00;100872.63;4954819;28;20047;-49
2021/12/03 08:58:39;;;;;;;31.05;8.18;;;;;;;3.69;100.00;100877.31;4956281;28;20387;-48
2021/12/03 09:01:27;;;;;;;20.75;6.15;;;;;;;3.60;96.57;100876.75;4946155;29;20424;-49
2021/12/03 09:04:15;;;;;;;29.63;7.75;;;;;;;3.71;100.00;100872.53;4959655;28;20452;-48
2021/12/03 09:07:04;;;;;;;21.48;6.53;;;;;;;3.73;100.00;100865.03;4952125;28;20049;-49
2021/12/03 09:09:52;;;;;;;23.27;6.15;;;;;;;3.94;100.00;100860.28;4955889;29;20051;-48
2021/12/03 09:12:42;;;;;;;25.45;8.20;;;;;;;4.49;100.00;100854.88;4956031;29;20502;-52
2021/12/03 09:15:36;;;;;;;22.88;6.93;;;;;;;4.22;100.00;100852.50;4954876;28;20494;-52
2021/12/03 09:18:36;;;;;;;26.20;8.32;;;;;;;4.06;100.00;100847.69;4957478;28;20047;-52
2021/12/03 09:21:38;;;;;;;20.48;6.28;;;;;;;4.03;100.00;100842.75;4955927;28;20046;-54
2021/12/03 09:24:31;;;;;;;18.13;5.68;;;;;;;3.96;100.00;100847.41;4956949;28;20043;-48
2021/12/03 09:27:20;;;;;;;18.55;5.63;;;;;;;4.00;100.00;100846.72;4942958;28;20059;-54
2021/12/03 09:30:10;;;;;;;26.05;7.50;;;;;;;4.06;100.00;100845.00;4954701;28;20139;-51
2021/12/03 09:32:58;;;;;;;18.08;6.50;;;;;;;4.42;100.00;100846.03;4955846;29;20054;-49
2021/12/03 09:35:48;;;;;;;29.02;7.85;;;;;;;4.53;100.00;100850.69;4982977;28;20043;-49
2021/12/03 09:38:37;;;;;;;19.10;6.15;;;;;;;5.11;100.00;100849.25;4953861;28;20126;-49
2021/12/03 09:41:24;;;;;;;19.42;5.93;;;;;;;4.59;100.00;100851.63;4950518;28;20137;-49
2021/12/03 09:44:12;;;;;;;21.23;6.85;;;;;;;4.37;100.00;100852.09;4945631;29;20055;-48
2021/12/03 09:47:01;;;;;;;16.88;5.65;;;;;;;5.17;100.00;100832.13;4954162;28;20073;-49
2021/12/03 09:49:42;;;;;;;22.33;6.28;;;;;;;5.19;100.00;100826.47;4954400;28;20505;-48
2021/12/03 09:55:17;;;;;;;18.23;5.80;;;;;;;5.66;100.00;100819.25;4955539;28;20058;-48
2021/12/03 10:13:56;;;;;;;17.10;5.80;;;;;;;6.06;100.00;100796.06;4952994;28;20050;-48
2021/12/03 10:29:26;;;;;;;15.50;5.28;;;;;;;4.11;97.51;100775.03;4950101;28;20106;-52
2021/12/03 10:32:36;;;;;;;16.35;5.05;;;;;;;4.70;100.00;100751.81;4954134;28;20082;-49
2021/12/03 10:35:47;;;;;;;14.48;4.65;;;;;;;6.09;100.00;100749.63;4955349;28;20403;-48
2021/12/03 10:38:45;;;;;;;16.58;5.57;;;;;;;5.55;100.00;100749.78;4953438;28;20051;-50
2021/12/03 10:41:48;;;;;;;16.70;5.75;;;;;;;4.67;97.45;100741.50;4953797;28;20073;-47
2021/12/03 10:44:53;;;;;;;14.20;4.78;;;;;;;4.58;100.00;100734.78;4952568;28;20051;-48
2021/12/03 10:51:12;;;;;;;13.43;4.03;;;;;;;4.98;100.00;100720.69;4952042;29;20118;-48
2021/12/03 11:07:05;;;;;;;18.60;5.22;;;;;;;6.20;100.00;100697.34;4929773;29;20143;-48
2021/12/03 11:20:04;;;;;;;10.85;3.80;;;;;;;5.69;100.00;100677.38;4924549;29;20043;-50
2021/12/03 12:00:03;;;;;;;56.53;33.97;;;;;;;5.50;98.77;100609.97;4949065;29;20058;-51
2021/12/03 12:37:27;;;;;;;87.68;49.38;;;;;;;7.56;92.21;100513.78;4951404;28;20123;-50
2021/12/03 12:57:14;;;;;;;82.85;47.88;;;;;;;6.05;91.51;100510.44;4950588;28;20050;-50
2021/12/03 13:24:02;;;;;;;68.25;34.08;;;;;;;7.28;90.25;100455.22;4953169;28;20134;-48
2021/12/03 14:01:14;;;;;;;42.53;20.20;;;;;;;6.08;97.64;100431.50;4951252;29;20047;-46
2021/12/03 14:45:09;;;;;;;26.23;12.10;;;;;;;6.67;100.00;100412.03;4952823;28;20090;-46
2021/12/03 14:48:19;;;;;;;24.73;12.25;;;;;;;6.47;100.00;100417.97;4963551;28;20387;-52
2021/12/03 15:00:47;;;;;;;14.98;6.78;;;;;;;7.18;92.92;100418.81;4952142;28;20047;-49
2021/12/03 15:07:14;;;;;;;12.00;6.30;;;;;;;6.59;95.89;100427.63;4979555;28;20074;-50
2021/12/03 15:10:06;;;;;;;14.13;5.95;;;;;;;6.39;100.00;100424.63;4960495;28;20417;-49
2021/12/03 15:30:50;;;;;;;14.43;6.38;;;;;;;6.31;100.00;100400.72;4945837;28;20054;-51
2021/12/03 15:55:38;;;;;;;14.27;5.97;;;;;;;5.81;100.00;100375.38;4952664;29;20083;-52
2021/12/03 16:04:27;;;;;;;16.38;6.20;;;;;;;6.30;100.00;100359.34;4949395;28;20055;-50
2021/12/03 16:10:14;;;;;;;7.40;3.22;;;;;;;6.46;100.00;100356.81;4950636;29;20059;-50
2021/12/03 16:19:33;;;;;;;8.38;3.70;;;;;;;6.42;100.00;100340.25;4950824;29;20706;-48
2021/12/03 16:25:47;;;;;;;6.70;3.35;;;;;;;6.88;100.00;100342.66;4937158;28;20253;-53
2021/12/03 16:47:04;;;;;;;7.05;2.65;;;;;;;6.56;100.00;100327.16;4949311;29;20055;-52
2021/12/03 16:50:20;;;;;;;6.90;3.42;;;;;;;6.42;100.00;100325.91;4953722;29;20059;-53
2021/12/03 16:53:03;;;;;;;6.50;3.30;;;;;;;6.24;100.00;100322.44;4943994;29;20059;-48
2021/12/03 16:56:02;;;;;;;8.57;3.83;;;;;;;6.44;100.00;100321.88;4953374;28;20524;-54
2021/12/03 16:58:50;;;;;;;4.07;2.50;;;;;;;5.91;100.00;100334.97;4953898;29;20573;-48
2021/12/03 17:02:30;;;;;;;6.30;3.20;;;;;;;6.18;100.00;100320.75;4954076;29;20161;-54
2021/12/03 17:05:08;;;;;;;6.30;2.88;;;;;;;6.58;100.00;100325.00;4937873;28;20054;-51
2021/12/03 17:53:41;;;;;;;4.93;2.65;;;;;;;6.37;100.00;100237.38;4943750;28;20062;-49
2021/12/03 17:56:06;;;;;;;4.55;2.45;;;;;;;6.50;100.00;100234.28;4951379;28;20502;-50
2021/12/03 17:59:42;;;;;;;6.63;2.97;;;;;;;6.62;100.00;100226.00;4953884;28;20070;-52
2021/12/03 18:02:12;;;;;;;5.20;2.60;;;;;;;6.82;100.00;100237.00;4951741;29;20530;-53
2021/12/03 18:17:01;;;;;;;3.92;2.28;;;;;;;5.65;100.00;100217.59;4953270;28;20078;-52
2021/12/03 18:56:43;;;;;;;3.47;2.30;;;;;;;6.16;100.00;100209.28;4951843;28;19930;-49
2021/12/03 18:59:36;;;;;;;3.15;2.20;;;;;;;6.22;100.00;100205.56;4952068;28;20043;-47
2021/12/03 19:02:25;;;;;;;3.83;2.60;;;;;;;6.67;100.00;100212.50;4951332;28;20074;-52
2021/12/03 19:05:28;;;;;;;3.42;2.20;;;;;;;6.68;100.00;100207.91;4951179;29;20077;-47
2021/12/03 19:08:19;;;;;;;2.78;2.38;;;;;;;6.30;100.00;100202.41;4951391;29;20043;-47
2021/12/03 19:11:18;;;;;;;4.40;2.40;;;;;;;6.41;100.00;100211.44;4952735;28;20062;-49
2021/12/03 19:14:09;;;;;;;4.07;1.98;;;;;;;6.14;100.00;100203.31;4951455;28;20051;-50
2021/12/03 19:16:57;;;;;;;3.38;2.20;;;;;;;6.14;100.00;100208.72;4950752;29;20490;-48
2021/12/03 19:19:46;;;;;;;3.30;2.13;;;;;;;5.88;100.00;100205.69;4935316;28;20044;-51
2021/12/03 19:22:34;;;;;;;4.80;2.20;;;;;;;5.88;100.00;100202.16;4950734;28;20767;-49
2021/12/03 19:25:21;;;;;;;3.35;2.42;;;;;;;6.22;100.00;100208.25;4950219;28;20055;-47
2021/12/03 19:28:09;;;;;;;2.35;1.85;;;;;;;5.96;100.00;100201.75;4950942;29;20086;-48
2021/12/03 19:30:57;;;;;;;2.78;2.15;;;;;;;6.05;100.00;100210.25;4952286;28;20043;-50
2021/12/03 19:33:44;;;;;;;2.22;2.03;;;;;;;5.80;100.00;100197.19;4949272;29;20062;-48
2021/12/03 19:36:38;;;;;;;3.13;2.30;;;;;;;5.47;100.00;100191.66;4955616;28;20187;-51
2021/12/03 19:39:26;;;;;;;6.03;2.30;;;;;;;5.39;100.00;100186.69;4943934;29;20067;-50
2021/12/03 19:42:18;;;;;;;4.72;2.22;;;;;;;5.47;100.00;100188.94;4951630;28;20066;-46
2021/12/03 19:45:08;;;;;;;3.85;2.40;;;;;;;5.97;100.00;100188.00;4950356;29;20059;-49
2021/12/03 19:48:07;;;;;;;5.20;2.40;;;;;;;5.89;100.00;100191.13;4951006;28;20062;-49
2021/12/03 19:50:57;;;;;;;3.58;2.10;;;;;;;5.45;100.00;100180.28;4949835;29;20102;-54
2021/12/03 19:53:56;;;;;;;2.55;2.03;;;;;;;5.59;100.00;100190.72;4951769;28;20062;-54
2021/12/03 19:56:44;;;;;;;1.98;1.77;;;;;;;5.71;100.00;100189.53;4946075;29;20058;-49
2021/12/03 19:59:32;;;;;;;2.25;2.05;;;;;;;5.46;100.00;100178.38;4944493;29;20043;-53
2021/12/03 20:02:19;;;;;;;3.47;2.28;;;;;;;5.57;100.00;100182.06;4950204;28;20058;-54
2021/12/03 20:05:08;;;;;;;2.78;2.20;;;;;;;5.47;100.00;100178.16;4947283;29;20110;-53
2021/12/03 20:07:57;;;;;;;2.20;2.00;;;;;;;5.58;100.00;100181.81;4950714;28;20109;-52
2021/12/03 20:10:47;;;;;;;3.20;2.40;;;;;;;5.45;100.00;100177.56;4942396;28;20078;-49
2021/12/03 20:13:36;;;;;;;2.67;2.25;;;;;;;5.33;100.00;100168.78;4955364;28;20106;-50
2021/12/03 20:16:31;;;;;;;4.63;2.53;;;;;;;5.36;100.00;100164.75;4953466;29;20070;-49
2021/12/03 20:22:12;;;;;;;4.03;2.63;;;;;;;5.31;100.00;100163.59;4942072;29;20126;-50